createdAt,value
2018-05-27T00:01:12.085Z,98888
2018-05-27T00:03:40.157Z,98888
2018-05-27T00:06:08.230Z,98884
2018-05-27T00:08:36.285Z,98889
2018-05-27T00:11:04.345Z,98887
2018-05-27T00:13:33.117Z,98882
2018-05-27T00:16:01.221Z,98884
2018-05-27T00:18:29.272Z,98875
2018-05-27T00:20:57.656Z,98876
2018-05-27T00:23:25.728Z,98871
2018-05-27T00:25:53.785Z,98864
2018-05-27T00:28:21.865Z,98868
2018-05-27T00:30:49.929Z,98857
2018-05-27T00:33:18.001Z,98863
2018-05-27T00:35:46.455Z,98863
2018-05-27T00:38:14.681Z,98859
2018-05-27T00:40:43.706Z,98860
2018-05-27T00:43:12.885Z,98854
2018-05-27T00:45:40.959Z,98859
2018-05-27T00:48:09.009Z,98856
2018-05-27T00:50:37.377Z,98856
2018-05-27T00:53:05.481Z,98849
2018-05-27T00:55:33.525Z,98845
2018-05-27T00:58:01.796Z,98843
2018-05-27T01:00:29.856Z,98835
2018-05-27T01:02:57.925Z,98829
2018-05-27T01:05:26.253Z,98824
2018-05-27T01:07:55.065Z,98829
2018-05-27T01:10:23.112Z,98832
2018-05-27T01:12:51.965Z,98836
2018-05-27T01:15:21.578Z,98828
2018-05-27T01:17:49.633Z,98832
2018-05-27T01:20:18.224Z,98827
2018-05-27T01:22:46.290Z,98827
2018-05-27T01:25:14.355Z,98830
2018-05-27T01:27:42.777Z,98830
2018-05-27T01:30:10.849Z,98824
2018-05-27T01:32:38.901Z,98827
2018-05-27T01:35:06.977Z,98830
2018-05-27T01:37:35.060Z,98837
2018-05-27T01:40:03.153Z,98836
2018-05-27T01:42:33.123Z,98837
2018-05-27T01:45:01.207Z,98837
2018-05-27T01:47:29.309Z,98837
2018-05-27T01:49:57.984Z,98833
2018-05-27T01:52:26.080Z,98829
2018-05-27T01:54:54.924Z,98831
2018-05-27T01:57:23.005Z,98822
2018-05-27T01:59:51.065Z,98820
2018-05-27T02:02:19.125Z,98819
2018-05-27T02:04:47.504Z,98815
2018-05-27T02:07:15.589Z,98815
2018-05-27T02:09:43.679Z,98811
2018-05-27T02:12:11.889Z,98806
2018-05-27T02:14:40.741Z,98810
2018-05-27T02:17:09.205Z,98808
2018-05-27T02:19:37.573Z,98810
2018-05-27T02:22:05.632Z,98818
2018-05-27T02:24:33.709Z,98818
2018-05-27T02:27:02.197Z,98814
2018-05-27T02:29:31.525Z,98813
2018-05-27T02:31:59.569Z,98814
2018-05-27T02:34:27.631Z,98814
2018-05-27T02:36:55.929Z,98817
2018-05-27T02:39:23.989Z,98808
2018-05-27T02:41:52.045Z,98806
2018-05-27T02:44:20.143Z,98803
2018-05-27T02:46:48.229Z,98803
2018-05-27T02:49:16.301Z,98803
2018-05-27T02:51:44.381Z,98805
2018-05-27T02:54:12.504Z,98803
2018-05-27T02:56:40.585Z,98799
2018-05-27T02:59:08.666Z,98800
2018-05-27T03:01:36.761Z,98800
2018-05-27T03:04:04.817Z,98796
2018-05-27T03:06:33.146Z,98792
2018-05-27T03:09:01.185Z,98793
2018-05-27T03:11:29.265Z,98790
2018-05-27T03:13:57.601Z,98789
2018-05-27T03:16:25.659Z,98789
2018-05-27T03:18:53.734Z,98793
2018-05-27T03:21:22.148Z,98795
2018-05-27T03:23:50.193Z,98799
2018-05-27T03:26:18.252Z,98799
2018-05-27T03:28:46.644Z,98788
2018-05-27T03:31:14.733Z,98795
2018-05-27T03:33:42.789Z,98788
2018-05-27T03:36:11.268Z,98786
2018-05-27T03:38:39.328Z,98781
2018-05-27T03:41:07.423Z,98776
2018-05-27T03:43:35.584Z,98779
2018-05-27T03:46:03.685Z,98781
2018-05-27T03:48:31.716Z,98777
2018-05-27T03:50:59.792Z,98784
2018-05-27T03:53:27.880Z,98781
2018-05-27T03:55:55.968Z,98780
2018-05-27T03:58:24.316Z,98776
2018-05-27T04:00:52.405Z,98775
2018-05-27T04:03:20.461Z,98776
2018-05-27T04:05:48.565Z,98780
2018-05-27T04:08:16.800Z,98783
2018-05-27T04:10:44.867Z,98788
2018-05-27T04:13:13.188Z,98786
2018-05-27T04:15:41.261Z,98793
2018-05-27T04:18:10.825Z,98803
2018-05-27T04:20:39.348Z,98804
2018-05-27T04:23:07.396Z,98808
2018-05-27T04:25:35.479Z,98808
2018-05-27T04:28:03.573Z,98808
2018-05-27T04:30:31.620Z,98815
2018-05-27T04:32:59.776Z,98816
2018-05-27T04:35:28.185Z,98818
2018-05-27T04:37:56.253Z,98824
2018-05-27T04:40:24.326Z,98820
2018-05-27T04:42:52.913Z,98820
2018-05-27T04:45:20.985Z,98822
2018-05-27T04:47:49.024Z,98828
2018-05-27T04:50:17.432Z,98826
2018-05-27T04:52:45.529Z,98824
2018-05-27T04:55:14.377Z,98824
2018-05-27T04:57:42.477Z,98826
2018-05-27T05:00:10.549Z,98829
2018-05-27T05:02:38.624Z,98826
2018-05-27T05:05:06.744Z,98826
2018-05-27T05:07:34.815Z,98827
2018-05-27T05:10:02.888Z,98826
2018-05-27T05:12:30.965Z,98818
2018-05-27T05:14:59.108Z,98815
2018-05-27T05:17:27.137Z,98819
2018-05-27T05:19:55.233Z,98817
2018-05-27T05:22:24.264Z,98818
2018-05-27T05:24:52.313Z,98813
2018-05-27T05:27:20.653Z,98811
2018-05-27T05:29:48.725Z,98806
2018-05-27T05:32:16.764Z,98809
2018-05-27T05:34:45.458Z,98816
2018-05-27T05:37:13.509Z,98814
2018-05-27T05:39:41.581Z,98818
2018-05-27T05:42:09.669Z,98818
2018-05-27T05:44:37.729Z,98815
2018-05-27T05:47:05.795Z,98814
2018-05-27T05:49:34.192Z,98811
2018-05-27T05:52:02.249Z,98809
2018-05-27T05:54:30.324Z,98812
2018-05-27T05:56:58.737Z,98815
2018-05-27T05:59:26.809Z,98817
2018-05-27T06:01:55.663Z,98819
2018-05-27T06:04:23.763Z,98819
2018-05-27T06:06:51.845Z,98825
2018-05-27T06:09:19.884Z,98824
2018-05-27T06:11:48.704Z,98820
2018-05-27T06:14:16.773Z,98815
2018-05-27T06:16:44.844Z,98817
2018-05-27T06:19:12.933Z,98821
2018-05-27T06:21:41.000Z,98818
2018-05-27T06:24:09.075Z,98829
2018-05-27T06:26:37.165Z,98826
2018-05-27T06:29:05.989Z,98831
2018-05-27T06:31:34.077Z,98827
2018-05-27T06:34:02.665Z,98825
2018-05-27T06:36:31.012Z,98827
2018-05-27T06:38:59.085Z,98828
2018-05-27T06:41:27.184Z,98832
2018-05-27T06:43:55.272Z,98830
2018-05-27T06:46:23.319Z,98829
2018-05-27T06:48:51.419Z,98827
2018-05-27T06:51:20.309Z,98824
2018-05-27T06:53:48.345Z,98821
2018-05-27T06:56:16.416Z,98821
2018-05-27T06:58:44.512Z,98826
2018-05-27T07:01:12.673Z,98826
2018-05-27T07:03:41.069Z,98826
2018-05-27T07:06:09.141Z,98824
2018-05-27T07:08:37.213Z,98816
2018-05-27T07:11:05.313Z,98815
2018-05-27T07:13:34.157Z,98816
2018-05-27T07:16:02.217Z,98811
2018-05-27T07:18:30.786Z,98808
2018-05-27T07:20:58.836Z,98803
2018-05-27T07:23:26.937Z,98808
2018-05-27T07:25:55.524Z,98802
2018-05-27T07:28:23.609Z,98808
2018-05-27T07:30:51.701Z,98800
2018-05-27T07:33:20.038Z,98794
2018-05-27T07:35:48.109Z,98788
2018-05-27T07:38:16.225Z,98781
2018-05-27T07:40:44.779Z,98781
2018-05-27T07:43:12.834Z,98783
2018-05-27T07:45:40.907Z,98780
2018-05-27T07:48:09.009Z,98779
2018-05-27T07:50:37.280Z,98781
2018-05-27T07:53:05.337Z,98786
2018-05-27T07:55:33.420Z,98779
2018-05-27T07:58:01.505Z,98783
2018-05-27T08:00:29.551Z,98785
2018-05-27T08:02:58.057Z,98780
2018-05-27T08:05:26.102Z,98780
2018-05-27T08:07:54.162Z,98786
2018-05-27T08:10:22.244Z,98787
2018-05-27T08:12:50.332Z,98788
2018-05-27T08:15:18.604Z,98791
2018-05-27T08:17:46.971Z,98787
2018-05-27T08:20:15.033Z,98788
2018-05-27T08:22:43.125Z,98796
2018-05-27T08:25:11.416Z,98801
2018-05-27T08:27:39.490Z,98797
2018-05-27T08:30:07.533Z,98804
2018-05-27T08:32:35.608Z,98808
2018-05-27T08:35:03.721Z,98806
2018-05-27T08:37:31.737Z,98813
2018-05-27T08:40:00.506Z,98808
2018-05-27T08:42:28.541Z,98808
2018-05-27T08:44:57.383Z,98813
2018-05-27T08:47:26.284Z,98814
2018-05-27T08:49:54.369Z,98812
2018-05-27T08:52:22.457Z,98815
2018-05-27T08:54:50.806Z,98816
2018-05-27T08:57:18.894Z,98811
2018-05-27T08:59:47.664Z,98808
2018-05-27T09:02:15.728Z,98813
2018-05-27T09:04:43.794Z,98811
2018-05-27T09:07:12.129Z,98806
2018-05-27T09:09:40.204Z,98810
2018-05-27T09:12:08.273Z,98805
2018-05-27T09:14:36.632Z,98806
2018-05-27T09:17:04.676Z,98789
2018-05-27T09:19:32.737Z,98791
2018-05-27T09:22:01.129Z,98773
2018-05-27T09:24:29.189Z,98777
2018-05-27T09:26:57.257Z,98774
2018-05-27T09:29:25.345Z,98776
2018-05-27T09:31:53.425Z,98777
2018-05-27T09:34:21.514Z,98771
2018-05-27T09:36:50.394Z,98769
2018-05-27T09:39:18.509Z,98768
2018-05-27T09:41:46.507Z,98757
2018-05-27T09:44:14.821Z,98755
2018-05-27T09:46:42.897Z,98748
2018-05-27T09:49:11.128Z,98753
2018-05-27T09:51:39.521Z,98745
2018-05-27T09:54:07.609Z,98732
2018-05-27T09:56:35.705Z,98732
2018-05-27T09:59:03.789Z,98730
2018-05-27T10:01:32.692Z,98722
2018-05-27T10:04:00.741Z,98725
2018-05-27T10:06:29.821Z,98720
2018-05-27T10:08:57.893Z,98718
2018-05-27T10:11:25.965Z,98719
2018-05-27T10:13:54.049Z,98711
2018-05-27T10:16:22.089Z,98706
2018-05-27T10:18:50.149Z,98706
2018-05-27T10:21:18.253Z,98717
2018-05-27T10:23:46.321Z,98717
2018-05-27T10:26:14.407Z,98716
2018-05-27T10:28:42.741Z,98715
2018-05-27T10:31:10.829Z,98714
2018-05-27T10:33:38.885Z,98715
2018-05-27T10:36:07.277Z,98707
2018-05-27T10:38:36.269Z,98711
2018-05-27T10:41:04.357Z,98715
2018-05-27T10:43:32.664Z,98705
2018-05-27T10:46:00.740Z,98712
2018-05-27T10:48:28.811Z,98707
2018-05-27T10:50:57.828Z,98702
2018-05-27T10:53:25.903Z,98703
2018-05-27T10:55:53.949Z,98696
2018-05-27T10:58:22.260Z,98685
2018-05-27T11:00:50.326Z,98685
2018-05-27T11:03:18.519Z,98682
2018-05-27T11:05:46.681Z,98681
2018-05-27T11:08:14.652Z,98685
2018-05-27T11:10:42.733Z,98691
2018-05-27T11:13:11.097Z,98685
2018-05-27T11:15:39.165Z,98685
2018-05-27T11:18:07.257Z,98690
2018-05-27T11:20:35.651Z,98679
2018-05-27T11:23:03.692Z,98671
2018-05-27T11:25:31.754Z,98664
2018-05-27T11:28:00.141Z,98663
2018-05-27T11:30:28.227Z,98654
2018-05-27T11:32:56.313Z,98658
2018-05-27T11:35:24.590Z,98649
2018-05-27T11:37:52.632Z,98647
2018-05-27T11:40:20.690Z,98641
2018-05-27T11:42:49.017Z,98638
2018-05-27T11:45:17.097Z,98636
2018-05-27T11:47:45.958Z,98638
2018-05-27T11:50:14.057Z,98626
2018-05-27T11:52:42.276Z,98621
2018-05-27T11:55:10.324Z,98620
2018-05-27T11:57:38.641Z,98625
2018-05-27T12:00:06.724Z,98623
2018-05-27T12:02:34.784Z,98621
2018-05-27T12:05:03.265Z,98618
2018-05-27T12:07:31.318Z,98621
2018-05-27T12:09:59.396Z,98614
2018-05-27T12:12:27.505Z,98611
2018-05-27T12:14:55.589Z,98612
2018-05-27T12:17:23.733Z,98611
2018-05-27T12:19:52.124Z,98611
2018-05-27T12:22:20.169Z,98606
2018-05-27T12:24:48.233Z,98607
2018-05-27T12:27:16.620Z,98600
2018-05-27T12:29:44.775Z,98599
2018-05-27T12:32:12.804Z,98592
2018-05-27T12:34:41.069Z,98589
2018-05-27T12:37:09.137Z,98587
2018-05-27T12:39:37.208Z,98584
2018-05-27T12:42:05.604Z,98580
2018-05-27T12:44:34.437Z,98576
2018-05-27T12:47:02.509Z,98579
2018-05-27T12:49:30.841Z,98584
2018-05-27T12:51:58.880Z,98597
2018-05-27T12:54:26.941Z,98600
2018-05-27T12:56:55.492Z,98615
2018-05-27T12:59:24.300Z,98633
2018-05-27T13:01:52.371Z,98649
2018-05-27T13:04:20.551Z,98652
2018-05-27T13:06:48.949Z,98656
2018-05-27T13:09:17.040Z,98666
2018-05-27T13:11:45.142Z,98669
2018-05-27T13:14:13.985Z,98681
2018-05-27T13:16:42.180Z,98717
2018-05-27T13:19:10.947Z,118199
2018-05-27T13:21:39.017Z,118199
2018-05-27T13:24:07.081Z,118199
2018-05-27T13:26:35.497Z,118199
2018-05-27T13:29:03.585Z,118199
2018-05-27T13:31:32.421Z,118199
2018-05-27T13:34:01.106Z,118199
2018-05-27T13:36:29.177Z,118199
2018-05-27T13:38:57.285Z,118199
2018-05-27T13:41:25.389Z,118199
2018-05-27T13:43:54.220Z,118199
2018-05-27T13:46:23.051Z,118199
2018-05-27T13:48:51.929Z,118199
2018-05-27T13:51:20.009Z,118199
2018-05-27T13:53:49.208Z,118199
2018-05-27T13:56:18.902Z,118199
2018-05-27T13:58:46.972Z,118199
2018-05-27T14:01:15.045Z,118199
2018-05-27T14:03:43.124Z,118199
2018-05-27T14:06:12.007Z,118199
2018-05-27T14:08:41.006Z,118199
2018-05-27T14:11:09.084Z,118199
2018-05-27T14:13:38.889Z,118199
2018-05-27T14:16:07.798Z,118199
2018-05-27T14:18:36.674Z,118199
2018-05-27T14:21:04.744Z,118199
2018-05-27T14:23:33.593Z,118199
2018-05-27T14:26:01.716Z,118199
2018-05-27T14:28:30.385Z,118199
2018-05-27T14:30:58.472Z,118199
2018-05-27T14:33:27.319Z,118199
2018-05-27T14:35:55.693Z,118199
2018-05-27T14:38:23.881Z,118199
2018-05-27T14:40:51.936Z,118199
2018-05-27T14:43:20.856Z,118199
2018-05-27T14:45:48.913Z,118199
2018-05-27T14:48:17.008Z,118199
2018-05-27T14:50:45.349Z,118199
2018-05-27T14:53:13.420Z,118199
2018-05-27T14:55:41.529Z,118199
2018-05-27T14:58:09.595Z,118199
2018-05-27T15:00:37.664Z,118199
2018-05-27T15:03:05.739Z,118199
2018-05-27T15:05:34.329Z,118199
2018-05-27T15:08:03.117Z,118199
2018-05-27T15:10:31.196Z,118199
2018-05-27T15:13:00.045Z,118199
2018-05-27T15:15:28.416Z,118199
2018-05-27T15:17:56.533Z,118199
2018-05-27T15:20:25.393Z,118199
2018-05-27T15:22:53.749Z,118199
2018-05-27T15:25:21.869Z,118199
2018-05-27T15:27:51.476Z,118199
2018-05-27T15:30:20.161Z,118199
2018-05-27T15:32:49.033Z,118199
2018-05-27T15:35:17.085Z,118199
2018-05-27T15:37:45.205Z,118199
2018-05-27T15:40:14.085Z,118199
2018-05-27T15:42:42.161Z,118199
2018-05-27T15:45:11.933Z,118199
2018-05-27T15:47:40.041Z,118199
2018-05-27T15:50:08.121Z,118199
2018-05-27T15:52:37.720Z,118199
2018-05-27T15:55:05.769Z,118199
2018-05-27T15:57:35.241Z,118199
2018-05-27T16:00:04.154Z,118199
2018-05-27T16:02:32.220Z,118199
2018-05-27T16:05:00.330Z,118199
2018-05-27T16:07:28.420Z,118199
2018-05-27T16:09:58.212Z,118199
2018-05-27T16:12:26.261Z,118199
2018-05-27T16:14:55.793Z,118199
2018-05-27T16:17:24.540Z,118199
2018-05-27T16:19:52.612Z,118199
2018-05-27T16:22:21.542Z,118199
2018-05-27T16:24:49.589Z,118199
2018-05-27T16:27:17.680Z,118199
2018-05-27T16:29:45.785Z,118199
2018-05-27T16:32:13.849Z,118199
2018-05-27T16:34:41.949Z,118199
2018-05-27T16:37:10.065Z,118199
2018-05-27T16:39:38.135Z,118199
2018-05-27T16:42:06.222Z,118199
2018-05-27T16:44:35.309Z,118199
2018-05-27T16:47:03.537Z,118199
2018-05-27T16:49:31.617Z,118199
2018-05-27T16:51:59.736Z,118199
2018-05-27T16:54:28.583Z,118199
2018-05-27T16:56:56.653Z,118199
2018-05-27T16:59:25.661Z,118199
2018-05-27T17:01:53.757Z,118199
2018-05-27T17:04:21.840Z,118199
2018-05-27T17:06:51.025Z,118199
2018-05-27T17:09:19.092Z,118199
2018-05-27T17:11:47.177Z,118199
2018-05-27T17:14:16.878Z,118199
2018-05-27T17:16:44.960Z,118199
2018-05-27T17:19:13.841Z,118199
2018-05-27T17:21:42.281Z,118199
2018-05-27T17:24:10.397Z,118199
2018-05-27T17:26:39.284Z,118199
2018-05-27T17:29:07.661Z,118199
2018-05-27T17:31:35.725Z,118199
2018-05-27T17:34:03.776Z,118199
2018-05-27T17:36:32.181Z,118199
2018-05-27T17:39:00.409Z,118199
2018-05-27T17:41:28.497Z,118199
2018-05-27T17:43:56.613Z,118199
2018-05-27T17:46:25.485Z,118199
2018-05-27T17:48:53.552Z,118199
2018-05-27T17:51:21.905Z,118199
2018-05-27T17:53:49.973Z,118199
2018-05-27T17:56:18.805Z,118199
2018-05-27T17:58:46.877Z,118199
2018-05-27T18:01:15.737Z,118199
2018-05-27T18:03:44.104Z,118199
2018-05-27T18:06:12.177Z,118199
2018-05-27T18:08:40.249Z,118199
2018-05-27T18:11:08.369Z,118199
2018-05-27T18:13:37.208Z,118199
2018-05-27T18:16:05.281Z,118199
2018-05-27T18:18:33.697Z,118199
2018-05-27T18:21:02.590Z,118199
2018-05-27T18:23:30.669Z,118199
2018-05-27T18:26:00.318Z,118199
2018-05-27T18:28:28.383Z,118199
2018-05-27T18:30:56.464Z,118199
2018-05-27T18:33:24.580Z,118199
2018-05-27T18:35:52.669Z,118199
2018-05-27T18:38:20.829Z,118199
2018-05-27T18:40:48.895Z,118199
2018-05-27T18:43:17.733Z,118199
2018-05-27T18:45:45.827Z,118199
2018-05-27T18:48:14.612Z,118199
2018-05-27T18:50:42.694Z,118199
2018-05-27T18:53:12.096Z,118199
2018-05-27T18:55:40.202Z,118199
2018-05-27T18:58:09.049Z,118199
2018-05-27T19:00:37.158Z,118199
2018-05-27T19:03:06.004Z,118199
2018-05-27T19:05:34.121Z,118199
2018-05-27T19:08:02.196Z,118199
2018-05-27T19:10:31.040Z,118199
2018-05-27T19:12:59.155Z,118199
2018-05-27T19:15:27.533Z,118199
2018-05-27T19:17:56.625Z,118199
2018-05-27T19:20:24.704Z,118199
2018-05-27T19:22:53.549Z,118199
2018-05-27T19:25:22.133Z,118199
2018-05-27T19:27:50.245Z,118199
2018-05-27T19:30:18.324Z,118199
2018-05-27T19:32:47.178Z,118199
2018-05-27T19:35:15.276Z,118199
2018-05-27T19:37:43.362Z,118199
2018-05-27T19:40:12.221Z,118199
2018-05-27T19:42:40.469Z,118199
2018-05-27T19:45:08.551Z,118199
2018-05-27T19:47:36.673Z,118199
2018-05-27T19:50:05.515Z,118199
2018-05-27T19:52:33.625Z,118199
2018-05-27T19:55:02.001Z,118199
2018-05-27T19:57:30.889Z,118199
2018-05-27T19:59:58.940Z,118199
2018-05-27T20:02:28.838Z,118199
2018-05-27T20:04:56.944Z,118199
2018-05-27T20:07:25.025Z,118199
2018-05-27T20:09:54.198Z,118199
2018-05-27T20:12:22.281Z,118199
2018-05-27T20:14:50.341Z,118199
2018-05-27T20:17:19.005Z,118199
2018-05-27T20:19:47.122Z,118199
2018-05-27T20:22:15.972Z,118199
2018-05-27T20:24:44.356Z,118199
2018-05-27T20:27:13.337Z,118199
2018-05-27T20:29:41.446Z,118199
2018-05-27T20:32:09.529Z,118199
2018-05-27T20:34:38.384Z,118199
2018-05-27T20:37:06.481Z,118199
2018-05-27T20:39:34.568Z,118199
2018-05-27T20:42:03.753Z,118199
2018-05-27T20:44:32.641Z,118199
2018-05-27T20:47:00.689Z,118199
2018-05-27T20:49:29.297Z,118199
2018-05-27T20:51:57.373Z,118199
2018-05-27T20:54:26.256Z,118199
2018-05-27T20:56:54.328Z,118199
2018-05-27T20:59:22.425Z,118199
2018-05-27T21:01:51.252Z,118199
2018-05-27T21:04:19.373Z,118199
2018-05-27T21:06:47.454Z,118199
2018-05-27T21:09:16.325Z,118199
2018-05-27T21:11:44.544Z,118199
2018-05-27T21:14:13.353Z,118199
2018-05-27T21:16:41.433Z,118199
2018-05-27T21:19:09.533Z,118199
2018-05-27T21:21:39.153Z,118199
2018-05-27T21:24:07.233Z,118199
2018-05-27T21:26:36.097Z,118199
2018-05-27T21:29:04.205Z,118199
2018-05-27T21:31:32.293Z,118199
2018-05-27T21:34:00.393Z,118199
2018-05-27T21:36:28.797Z,118199
2018-05-27T21:38:57.049Z,118199
2018-05-27T21:41:25.105Z,118199
2018-05-27T21:43:54.306Z,118199
2018-05-27T21:46:22.413Z,118199
2018-05-27T21:48:50.496Z,118199
2018-05-27T21:51:20.094Z,118199
2018-05-27T21:53:48.945Z,118199
2018-05-27T21:56:17.057Z,118199
2018-05-27T21:58:45.261Z,118199
2018-05-27T22:01:14.124Z,118199
2018-05-27T22:03:42.181Z,118199
2018-05-27T22:06:10.673Z,118199
2018-05-27T22:08:39.525Z,118199
2018-05-27T22:11:07.596Z,118199
2018-05-27T22:13:36.013Z,118199
2018-05-27T22:16:05.051Z,118199
2018-05-27T22:18:33.153Z,118199
2018-05-27T22:21:01.258Z,118199
2018-05-27T22:23:30.145Z,118199
2018-05-27T22:25:58.228Z,118199
2018-05-27T22:28:27.933Z,118199
2018-05-27T22:30:56.777Z,118199
2018-05-27T22:33:25.705Z,118199
2018-05-27T22:35:54.569Z,118199
2018-05-27T22:38:22.637Z,118199
2018-05-27T22:40:50.993Z,118199
2018-05-27T22:43:19.059Z,118199
2018-05-27T22:45:47.161Z,118199
2018-05-27T22:48:15.261Z,118199
2018-05-27T22:50:43.349Z,118199
2018-05-27T22:53:12.253Z,118199
2018-05-27T22:55:40.449Z,118199
2018-05-27T22:58:08.620Z,118199
2018-05-27T23:00:36.741Z,118199
2018-05-27T23:03:04.833Z,118199
2018-05-27T23:05:33.715Z,118199
2018-05-27T23:08:02.593Z,118199
2018-05-27T23:10:30.918Z,118199
2018-05-27T23:12:59.024Z,118199
2018-05-27T23:15:27.089Z,118199
2018-05-27T23:17:55.485Z,118199
2018-05-27T23:20:23.574Z,118199
2018-05-27T23:22:52.456Z,118199
2018-05-27T23:25:20.581Z,118199
2018-05-27T23:27:48.655Z,118199
2018-05-27T23:30:16.772Z,118199
2018-05-27T23:32:44.873Z,118199
2018-05-27T23:35:13.066Z,118199
2018-05-27T23:37:41.136Z,118199
2018-05-27T23:40:09.521Z,118199
2018-05-27T23:42:37.617Z,118199
2018-05-27T23:45:05.712Z,118199
2018-05-27T23:47:33.949Z,118199
2018-05-27T23:50:02.053Z,118199
2018-05-27T23:52:30.108Z,118199
2018-05-27T23:54:58.509Z,118199
2018-05-27T23:57:26.589Z,118199
2018-05-27T23:59:56.191Z,118199
